createdAt,value
2019-02-23T00:01:05.903Z,9.70
2019-02-23T00:03:41.226Z,9.70
2019-02-23T00:06:15.490Z,9.70
2019-02-23T00:08:49.027Z,9.70
2019-02-23T00:11:26.244Z,9.70
2019-02-23T00:14:00.114Z,9.70
2019-02-23T00:16:34.688Z,9.80
2019-02-23T00:19:08.725Z,9.80
2019-02-23T00:21:43.853Z,9.70
2019-02-23T00:24:17.984Z,9.70
2019-02-23T00:26:52.210Z,9.60
2019-02-23T00:29:25.906Z,9.70
2019-02-23T00:32:00.003Z,9.70
2019-02-23T00:34:34.951Z,9.70
2019-02-23T00:37:08.946Z,9.70
2019-02-23T00:39:44.707Z,9.70
2019-02-23T00:42:18.750Z,9.80
2019-02-23T00:44:52.491Z,9.80
2019-02-23T00:47:27.389Z,9.80
2019-02-23T00:50:03.918Z,9.80
2019-02-23T00:52:37.656Z,9.90
2019-02-23T00:55:11.700Z,9.90
2019-02-23T00:57:45.888Z,9.90
2019-02-23T01:00:22.218Z,9.90
2019-02-23T01:02:56.479Z,9.90
2019-02-23T01:05:30.302Z,9.90
2019-02-23T01:08:04.142Z,9.90
2019-02-23T01:10:37.878Z,9.80
2019-02-23T01:13:12.382Z,9.80
2019-02-23T01:15:46.810Z,9.80
2019-02-23T01:18:20.707Z,9.80
2019-02-23T01:20:56.856Z,9.70
2019-02-23T01:23:30.911Z,9.70
2019-02-23T01:26:04.516Z,9.80
2019-02-23T01:28:38.300Z,9.80
2019-02-23T01:31:11.844Z,9.80
2019-02-23T01:33:46.333Z,9.80
2019-02-23T01:36:20.154Z,9.80
2019-02-23T01:38:54.998Z,9.80
2019-02-23T01:41:28.608Z,9.80
2019-02-23T01:44:02.715Z,9.90
2019-02-23T01:46:36.339Z,9.90
2019-02-23T01:49:10.863Z,9.80
2019-02-23T01:51:44.906Z,9.90
2019-02-23T01:54:18.902Z,9.80
2019-02-23T01:56:52.649Z,9.70
2019-02-23T01:59:27.080Z,9.70
2019-02-23T02:02:00.921Z,9.70
2019-02-23T02:04:35.416Z,9.70
2019-02-23T02:07:12.671Z,9.60
2019-02-23T02:09:48.408Z,9.60
2019-02-23T02:12:23.258Z,9.60
2019-02-23T02:14:57.260Z,9.50
2019-02-23T02:17:30.846Z,9.40
2019-02-23T02:20:10.888Z,9.30
2019-02-23T02:22:39.978Z,9.20
2019-02-23T02:25:14.916Z,9.00
2019-02-23T02:27:49.376Z,8.90
2019-02-23T02:30:24.941Z,8.80
2019-02-23T02:32:58.703Z,8.70
2019-02-23T02:35:52.835Z,8.70
2019-02-23T02:38:26.690Z,8.70
2019-02-23T02:41:02.432Z,8.70
2019-02-23T02:43:36.021Z,8.70
2019-02-23T02:46:09.910Z,8.70
2019-02-23T02:48:45.719Z,8.70
2019-02-23T02:51:19.697Z,8.70
2019-02-23T02:53:53.318Z,8.60
2019-02-23T02:56:27.510Z,8.60
2019-02-23T02:59:01.182Z,8.70
2019-02-23T03:01:35.287Z,8.60
2019-02-23T03:04:11.274Z,8.70
2019-02-23T03:06:46.693Z,8.70
2019-02-23T03:09:20.358Z,8.80
2019-02-23T03:11:54.046Z,8.80
2019-02-23T03:14:27.624Z,8.80
2019-02-23T03:17:01.524Z,8.80
2019-02-23T03:19:35.340Z,8.90
2019-02-23T03:22:08.984Z,8.80
2019-02-23T03:24:45.284Z,8.80
2019-02-23T03:27:19.012Z,8.70
2019-02-23T03:29:52.628Z,8.90
2019-02-23T03:32:26.551Z,8.80
2019-02-23T03:35:00.569Z,8.70
2019-02-23T03:37:34.612Z,8.50
2019-02-23T03:40:09.834Z,8.30
2019-02-23T03:42:44.015Z,8.20
2019-02-23T03:45:18.081Z,8.30
2019-02-23T03:47:51.965Z,8.10
2019-02-23T03:50:26.214Z,8.10
2019-02-23T03:53:02.904Z,8.10
2019-02-23T03:55:37.200Z,8.00
2019-02-23T03:58:11.163Z,8.00
2019-02-23T04:00:44.702Z,8.00
2019-02-23T04:03:18.437Z,7.90
2019-02-23T04:05:52.446Z,7.90
2019-02-23T04:08:27.680Z,7.80
2019-02-23T04:11:01.626Z,7.50
2019-02-23T04:13:35.705Z,7.50
2019-02-23T04:16:09.448Z,7.40
2019-02-23T04:18:43.152Z,7.30
2019-02-23T04:21:16.785Z,7.10
2019-02-23T04:23:50.756Z,7.20
2019-02-23T04:26:26.801Z,7.10
2019-02-23T04:29:01.790Z,7.10
2019-02-23T04:31:35.487Z,7.00
2019-02-23T04:34:09.571Z,6.90
2019-02-23T04:36:43.480Z,6.90
2019-02-23T04:39:17.372Z,6.90
2019-02-23T04:41:51.416Z,6.90
2019-02-23T04:44:25.100Z,6.90
2019-02-23T04:46:59.180Z,6.90
2019-02-23T04:49:32.856Z,6.90
2019-02-23T04:52:06.794Z,6.90
2019-02-23T04:54:41.880Z,6.80
2019-02-23T04:57:15.806Z,6.90
2019-02-23T04:59:49.482Z,6.80
2019-02-23T05:02:23.481Z,6.90
2019-02-23T05:04:57.200Z,6.60
2019-02-23T05:07:31.297Z,6.60
2019-02-23T05:10:06.727Z,6.50
2019-02-23T05:12:40.766Z,6.60
2019-02-23T05:15:15.138Z,6.40
2019-02-23T05:17:48.783Z,6.50
2019-02-23T05:20:22.761Z,6.50
2019-02-23T05:22:56.933Z,6.60
2019-02-23T05:25:31.077Z,6.70
2019-02-23T05:28:04.770Z,6.80
2019-02-23T05:30:38.834Z,6.90
2019-02-23T05:33:12.716Z,7.10
2019-02-23T05:35:46.873Z,7.20
2019-02-23T05:38:21.620Z,7.30
2019-02-23T05:40:55.910Z,7.20
2019-02-23T05:43:29.699Z,7.20
2019-02-23T05:46:04.584Z,7.20
2019-02-23T05:48:38.202Z,7.20
2019-02-23T05:51:13.178Z,7.30
2019-02-23T05:53:46.888Z,7.30
2019-02-23T05:56:21.899Z,7.40
2019-02-23T05:58:55.568Z,7.40
2019-02-23T06:01:29.184Z,7.30
2019-02-23T06:04:03.290Z,7.20
2019-02-23T06:06:37.704Z,7.30
2019-02-23T06:09:13.928Z,7.40
2019-02-23T06:11:49.287Z,7.40
2019-02-23T06:14:23.029Z,7.30
2019-02-23T06:16:57.314Z,7.30
2019-02-23T06:19:31.074Z,7.40
2019-02-23T06:22:05.455Z,7.30
2019-02-23T06:24:39.395Z,7.30
2019-02-23T06:27:13.517Z,7.10
2019-02-23T06:29:47.059Z,6.70
2019-02-23T06:32:21.202Z,6.50
2019-02-23T06:34:55.954Z,6.40
2019-02-23T06:37:31.331Z,6.30
2019-02-23T06:40:08.447Z,6.30
2019-02-23T06:42:43.244Z,6.40
2019-02-23T06:45:17.127Z,6.40
2019-02-23T06:47:51.544Z,6.40
2019-02-23T06:50:29.458Z,6.30
2019-02-23T06:53:03.620Z,6.50
2019-02-23T06:55:37.942Z,6.50
2019-02-23T06:58:13.172Z,6.60
2019-02-23T07:00:47.612Z,6.50
2019-02-23T07:03:21.920Z,6.40
2019-02-23T07:05:56.293Z,6.40
2019-02-23T07:08:31.561Z,6.40
2019-02-23T07:11:08.965Z,6.40
2019-02-23T07:13:45.278Z,6.40
2019-02-23T07:16:19.598Z,6.30
2019-02-23T07:18:53.926Z,6.40
2019-02-23T07:21:28.329Z,6.50
2019-02-23T07:24:02.364Z,6.60
2019-02-23T07:26:37.632Z,6.60
2019-02-23T07:29:11.769Z,6.60
2019-02-23T07:31:45.873Z,6.60
2019-02-23T07:34:20.157Z,6.70
2019-02-23T07:36:54.770Z,6.80
2019-02-23T07:39:30.626Z,6.90
2019-02-23T07:42:04.572Z,6.90
2019-02-23T07:44:39.200Z,6.80
2019-02-23T07:47:15.084Z,6.70
2019-02-23T07:49:50.439Z,6.90
2019-02-23T07:52:26.855Z,7.00
2019-02-23T07:55:01.954Z,7.10
2019-02-23T07:57:36.566Z,7.10
2019-02-23T08:00:11.587Z,7.00
2019-02-23T08:02:45.536Z,7.00
2019-02-23T08:05:21.242Z,7.00
2019-02-23T08:07:57.518Z,7.20
2019-02-23T08:10:32.666Z,7.20
2019-02-23T08:13:07.204Z,7.20
2019-02-23T08:15:41.712Z,7.30
2019-02-23T08:18:16.021Z,7.30
2019-02-23T08:20:50.568Z,7.30
2019-02-23T08:23:25.210Z,7.30
2019-02-23T08:26:00.732Z,7.40
2019-02-23T08:28:37.503Z,7.50
2019-02-23T08:31:13.460Z,7.60
2019-02-23T08:33:49.717Z,7.70
2019-02-23T08:36:24.707Z,7.60
2019-02-23T08:39:00.380Z,7.50
2019-02-23T08:41:36.075Z,7.50
2019-02-23T08:44:11.053Z,7.40
2019-02-23T08:46:45.945Z,7.10
2019-02-23T08:49:22.370Z,7.10
2019-02-23T08:51:57.869Z,7.10
2019-02-23T08:54:34.454Z,7.10
2019-02-23T08:57:09.038Z,7.20
2019-02-23T08:59:43.236Z,7.10
2019-02-23T09:02:17.536Z,7.10
2019-02-23T09:04:53.050Z,7.30
2019-02-23T09:07:28.087Z,7.10
2019-02-23T09:10:01.990Z,7.10
2019-02-23T09:12:37.353Z,7.10
2019-02-23T09:15:12.087Z,7.10
2019-02-23T09:17:46.921Z,7.20
2019-02-23T09:20:28.532Z,7.30
2019-02-23T09:23:00.363Z,7.30
2019-02-23T09:25:34.791Z,7.20
2019-02-23T09:28:09.146Z,7.30
2019-02-23T09:30:46.294Z,7.40
2019-02-23T09:33:21.430Z,7.30
2019-02-23T09:35:56.240Z,7.20
2019-02-23T09:38:31.774Z,7.30
2019-02-23T09:41:06.497Z,7.30
2019-02-23T09:43:41.343Z,7.20
2019-02-23T09:46:15.204Z,7.10
2019-02-23T09:48:51.569Z,7.20
2019-02-23T09:51:26.132Z,7.30
2019-02-23T09:54:00.653Z,7.50
2019-02-23T09:56:35.843Z,7.50
2019-02-23T09:59:15.248Z,7.40
2019-02-23T10:01:53.744Z,7.60
2019-02-23T10:04:34.147Z,7.80
2019-02-23T10:07:11.792Z,7.80
2019-02-23T10:09:48.302Z,7.70
2019-02-23T10:12:25.550Z,7.70
2019-02-23T10:15:00.220Z,7.80
2019-02-23T10:17:36.712Z,7.80
2019-02-23T10:20:11.658Z,7.70
2019-02-23T10:22:47.572Z,7.80
2019-02-23T10:25:22.688Z,7.80
2019-02-23T10:27:59.331Z,8.00
2019-02-23T10:30:33.978Z,8.00
2019-02-23T10:33:08.783Z,8.00
2019-02-23T10:35:47.147Z,8.00
2019-02-23T10:38:26.211Z,8.00
2019-02-23T10:41:01.405Z,8.10
2019-02-23T10:43:35.666Z,8.10
2019-02-23T10:46:12.244Z,8.20
2019-02-23T10:48:48.110Z,8.20
2019-02-23T10:51:23.261Z,8.40
2019-02-23T10:53:57.819Z,8.40
2019-02-23T10:56:32.002Z,8.40
2019-02-23T10:59:09.316Z,8.50
2019-02-23T11:01:44.555Z,8.50
2019-02-23T11:04:21.041Z,8.50
2019-02-23T11:06:55.838Z,8.50
2019-02-23T11:09:39.207Z,8.60
2019-02-23T11:12:13.720Z,8.70
2019-02-23T11:14:48.833Z,8.70
2019-02-23T11:17:27.373Z,8.70
2019-02-23T11:20:02.210Z,8.80
2019-02-23T11:22:37.631Z,8.70
2019-02-23T11:25:12.218Z,8.80
2019-02-23T11:27:47.314Z,8.80
2019-02-23T11:30:24.878Z,8.70
2019-02-23T11:32:59.954Z,8.30
2019-02-23T11:35:36.377Z,8.30
2019-02-23T11:38:11.800Z,8.40
2019-02-23T11:40:47.231Z,8.50
2019-02-23T11:43:24.043Z,8.70
2019-02-23T11:46:00.144Z,8.60
2019-02-23T11:48:33.964Z,8.70
2019-02-23T11:51:09.536Z,8.70
2019-02-23T11:53:54.403Z,8.90
2019-02-23T11:56:24.420Z,9.00
2019-02-23T11:59:00.741Z,9.00
2019-02-23T12:01:35.714Z,9.20
2019-02-23T12:04:10.284Z,9.30
2019-02-23T12:06:44.101Z,9.30
2019-02-23T12:09:18.995Z,9.50
2019-02-23T12:11:52.875Z,9.70
2019-02-23T12:14:27.734Z,9.70
2019-02-23T12:17:03.168Z,9.70
2019-02-23T12:19:38.776Z,9.80
2019-02-23T12:22:12.950Z,9.80
2019-02-23T12:24:51.232Z,9.80
2019-02-23T12:27:26.302Z,9.90
2019-02-23T12:30:01.811Z,9.80
2019-02-23T12:32:38.186Z,9.90
2019-02-23T12:35:13.501Z,9.90
2019-02-23T12:37:51.662Z,9.90
2019-02-23T12:40:26.092Z,9.90
2019-02-23T12:43:00.470Z,9.90
2019-02-23T12:45:44.258Z,10.00
2019-02-23T12:48:18.824Z,10.00
2019-02-23T12:50:53.214Z,9.90
2019-02-23T12:53:27.553Z,10.00
2019-02-23T12:56:05.974Z,10.00
2019-02-23T12:58:40.324Z,10.10
2019-02-23T13:01:15.403Z,10.00
2019-02-23T13:03:49.479Z,10.00
2019-02-23T13:06:24.973Z,10.10
2019-02-23T13:09:16.731Z,10.10
2019-02-23T13:12:13.797Z,10.20
2019-02-23T13:15:21.342Z,10.30
2019-02-23T13:18:44.866Z,10.30
2019-02-23T13:21:55.896Z,10.30
2019-02-23T13:25:05.066Z,10.20
2019-02-23T13:28:35.588Z,10.20
2019-02-23T13:31:31.310Z,10.10
2019-02-23T13:34:56.970Z,10.30
2019-02-23T13:38:03.204Z,10.40
2019-02-23T13:41:11.523Z,10.40
2019-02-23T13:44:33.049Z,10.50
2019-02-23T13:47:40.672Z,10.40
2019-02-23T13:50:43.136Z,10.40
2019-02-23T13:53:52.160Z,10.40
2019-02-23T13:56:45.090Z,10.40
2019-02-23T13:59:34.454Z,10.50
2019-02-23T14:02:36.179Z,10.40
2019-02-23T14:05:25.380Z,10.30
2019-02-23T14:08:47.216Z,10.20
2019-02-23T14:11:44.149Z,10.20
2019-02-23T14:15:25.962Z,10.20
2019-02-23T14:18:23.734Z,10.30
2019-02-23T14:21:25.058Z,10.30
2019-02-23T14:24:50.578Z,10.00
2019-02-23T14:27:38.595Z,9.80
2019-02-23T14:30:38.787Z,9.80
2019-02-23T14:34:03.828Z,9.80
2019-02-23T14:37:25.718Z,9.70
2019-02-23T14:40:34.470Z,9.60
2019-02-23T14:43:59.273Z,9.20
2019-02-23T14:47:25.279Z,9.30
2019-02-23T14:50:53.220Z,9.40
2019-02-23T14:54:03.114Z,9.40
2019-02-23T14:57:07.598Z,9.60
2019-02-23T15:00:13.112Z,9.40
2019-02-23T15:03:31.199Z,9.50
2019-02-23T15:06:43.297Z,9.60
2019-02-23T15:10:13.116Z,9.50
2019-02-23T15:13:20.086Z,9.40
2019-02-23T15:16:52.566Z,9.60
2019-02-23T15:20:00.670Z,9.70
2019-02-23T15:22:58.656Z,9.70
2019-02-23T15:26:15.033Z,9.60
2019-02-23T15:29:17.417Z,9.70
2019-02-23T15:32:37.980Z,9.70
2019-02-23T15:35:27.515Z,9.60
2019-02-23T15:38:45.871Z,9.70
2019-02-23T15:41:45.517Z,9.80
2019-02-23T15:45:02.570Z,9.90
2019-02-23T15:47:52.142Z,9.90
2019-02-23T15:50:27.777Z,9.90
2019-02-23T15:53:02.142Z,9.80
2019-02-23T15:55:37.093Z,9.70
2019-02-23T15:58:11.568Z,9.70
2019-02-23T16:00:46.676Z,9.50
2019-02-23T16:03:21.566Z,9.40
2019-02-23T16:05:55.745Z,9.20
2019-02-23T16:08:29.719Z,9.30
2019-02-23T16:11:04.983Z,9.20
2019-02-23T16:13:40.845Z,9.20
2019-02-23T16:16:15.191Z,9.10
2019-02-23T16:18:48.979Z,9.20
2019-02-23T16:21:24.015Z,9.00
2019-02-23T16:23:58.710Z,8.80
2019-02-23T16:26:34.364Z,8.80
2019-02-23T16:29:09.768Z,8.80
2019-02-23T16:31:44.040Z,8.80
2019-02-23T16:34:18.906Z,8.70
2019-02-23T16:36:52.631Z,8.60
2019-02-23T16:39:26.824Z,8.70
2019-02-23T16:42:00.621Z,8.90
2019-02-23T16:44:35.014Z,8.70
2019-02-23T16:47:09.575Z,8.60
2019-02-23T16:49:43.753Z,8.50
2019-02-23T16:52:18.488Z,8.30
2019-02-23T16:54:54.468Z,8.10
2019-02-23T16:57:28.145Z,8.00
2019-02-23T17:00:03.164Z,8.20
2019-02-23T17:02:38.631Z,8.20
2019-02-23T17:05:13.215Z,8.20
2019-02-23T17:07:47.971Z,8.00
2019-02-23T17:10:22.776Z,8.10
2019-02-23T17:12:57.772Z,8.10
2019-02-23T17:15:31.828Z,8.20
2019-02-23T17:18:05.777Z,8.00
2019-02-23T17:20:40.161Z,8.00
2019-02-23T17:23:14.236Z,8.20
2019-02-23T17:25:48.642Z,8.20
2019-02-23T17:28:23.112Z,8.30
2019-02-23T17:30:57.568Z,8.20
2019-02-23T17:33:33.182Z,7.90
2019-02-23T17:36:07.335Z,7.90
2019-02-23T17:38:44.619Z,7.90
2019-02-23T17:41:17.871Z,8.00
2019-02-23T17:43:54.099Z,8.20
2019-02-23T17:46:27.395Z,8.10
2019-02-23T17:49:01.855Z,8.00
2019-02-23T17:51:37.973Z,8.00
2019-02-23T17:54:12.190Z,8.00
2019-02-23T17:56:46.613Z,7.90
2019-02-23T17:59:22.393Z,7.80
2019-02-23T18:01:56.972Z,7.70
2019-02-23T18:04:30.954Z,7.70
2019-02-23T18:07:05.497Z,7.60
2019-02-23T18:09:40.410Z,7.70
2019-02-23T18:12:14.240Z,7.70
2019-02-23T18:14:49.005Z,7.80
2019-02-23T18:17:23.241Z,7.70
2019-02-23T18:19:57.714Z,7.80
2019-02-23T18:22:33.373Z,7.80
2019-02-23T18:25:08.556Z,7.70
2019-02-23T18:27:44.345Z,7.80
2019-02-23T18:30:18.820Z,7.80
2019-02-23T18:32:54.460Z,7.60
2019-02-23T18:35:28.377Z,7.50
2019-02-23T18:38:02.314Z,7.60
2019-02-23T18:40:36.504Z,7.60
2019-02-23T18:43:11.204Z,7.50
2019-02-23T18:45:47.601Z,7.30
2019-02-23T18:48:20.998Z,7.30
2019-02-23T18:50:55.768Z,7.10
2019-02-23T18:53:31.713Z,7.10
2019-02-23T18:56:06.848Z,7.10
2019-02-23T18:58:41.214Z,7.10
2019-02-23T19:01:16.150Z,7.10
2019-02-23T19:03:50.554Z,7.30
2019-02-23T19:06:25.393Z,7.40
2019-02-23T19:08:59.809Z,7.50
2019-02-23T19:11:34.100Z,7.60
2019-02-23T19:14:09.622Z,7.60
2019-02-23T19:16:44.392Z,7.60
2019-02-23T19:19:18.774Z,7.50
2019-02-23T19:21:53.242Z,7.60
2019-02-23T19:24:27.703Z,7.50
2019-02-23T19:27:01.988Z,7.50
2019-02-23T19:29:36.940Z,7.40
2019-02-23T19:32:11.766Z,7.50
2019-02-23T19:34:47.113Z,7.60
2019-02-23T19:37:20.918Z,7.60
2019-02-23T19:39:54.892Z,7.60
2019-02-23T19:42:29.323Z,7.60
2019-02-23T19:45:09.634Z,7.60
2019-02-23T19:47:44.315Z,7.50
2019-02-23T19:50:24.864Z,7.40
2019-02-23T19:52:58.950Z,7.30
2019-02-23T19:55:33.192Z,7.30
2019-02-23T19:58:07.090Z,7.30
2019-02-23T20:00:44.946Z,7.20
2019-02-23T20:03:19.156Z,7.20
2019-02-23T20:05:52.959Z,7.30
2019-02-23T20:08:26.964Z,7.20
2019-02-23T20:11:01.396Z,7.10
2019-02-23T20:13:37.991Z,7.10
2019-02-23T20:16:16.104Z,7.10
2019-02-23T20:18:50.810Z,7.20
2019-02-23T20:21:24.691Z,7.10
2019-02-23T20:23:58.207Z,7.10
2019-02-23T20:26:31.763Z,7.10
2019-02-23T20:29:05.800Z,7.00
2019-02-23T20:31:39.370Z,7.00
2019-02-23T20:34:13.334Z,7.10
2019-02-23T20:36:49.734Z,7.00
2019-02-23T20:39:24.174Z,7.00
2019-02-23T20:41:59.403Z,7.00
2019-02-23T20:44:33.930Z,6.90
2019-02-23T20:47:08.090Z,6.80
2019-02-23T20:49:41.967Z,6.70
2019-02-23T20:52:16.559Z,6.80
2019-02-23T20:54:51.048Z,6.70
2019-02-23T20:57:25.481Z,6.70
2019-02-23T20:59:59.897Z,6.80
2019-02-23T21:02:34.988Z,6.70
2019-02-23T21:05:09.125Z,6.70
2019-02-23T21:07:47.657Z,6.60
2019-02-23T21:10:21.381Z,6.60
2019-02-23T21:12:56.097Z,6.60
2019-02-23T21:15:30.925Z,6.60
2019-02-23T21:18:04.741Z,6.60
2019-02-23T21:20:38.964Z,6.60
2019-02-23T21:23:14.229Z,6.70
2019-02-23T21:25:48.735Z,6.80
2019-02-23T21:28:22.719Z,6.70
2019-02-23T21:30:56.548Z,6.60
2019-02-23T21:33:30.655Z,6.50
2019-02-23T21:36:05.060Z,6.60
2019-02-23T21:38:40.354Z,6.50
2019-02-23T21:41:14.406Z,6.50
2019-02-23T21:43:49.018Z,6.60
2019-02-23T21:46:23.654Z,6.60
2019-02-23T21:48:57.757Z,6.60
2019-02-23T21:51:31.065Z,6.60
2019-02-23T21:54:10.208Z,6.70
2019-02-23T21:56:40.961Z,6.60
2019-02-23T21:59:14.877Z,6.50
2019-02-23T22:01:48.788Z,6.60
2019-02-23T22:04:22.554Z,6.80
2019-02-23T22:06:56.461Z,6.80
2019-02-23T22:09:30.132Z,6.60
2019-02-23T22:12:04.223Z,6.40
2019-02-23T22:14:37.931Z,6.30
2019-02-23T22:17:12.098Z,6.30
2019-02-23T22:19:45.844Z,6.20
2019-02-23T22:22:19.824Z,6.20
2019-02-23T22:24:53.855Z,6.20
2019-02-23T22:27:31.402Z,6.30
2019-02-23T22:30:03.344Z,6.20
2019-02-23T22:32:38.717Z,6.20
2019-02-23T22:35:14.590Z,6.10
2019-02-23T22:37:48.652Z,6.20
2019-02-23T22:40:25.198Z,6.20
2019-02-23T22:43:07.484Z,6.30
2019-02-23T22:45:41.890Z,6.40
2019-02-23T22:48:16.156Z,6.30
2019-02-23T22:50:49.763Z,6.20
2019-02-23T22:53:23.623Z,6.20
2019-02-23T22:55:57.548Z,6.10
2019-02-23T22:58:31.600Z,6.30
2019-02-23T23:01:07.189Z,6.20
2019-02-23T23:03:42.026Z,6.30
2019-02-23T23:06:16.600Z,6.30
2019-02-23T23:08:50.607Z,6.20
2019-02-23T23:11:24.911Z,6.20
2019-02-23T23:13:58.818Z,6.00
2019-02-23T23:16:32.952Z,5.90
2019-02-23T23:19:07.477Z,5.90
2019-02-23T23:21:41.079Z,5.80
2019-02-23T23:24:15.229Z,5.90
2019-02-23T23:26:49.504Z,6.10
2019-02-23T23:29:23.538Z,6.00
2019-02-23T23:31:57.157Z,5.90
2019-02-23T23:34:31.044Z,5.80
2019-02-23T23:37:05.514Z,5.90
2019-02-23T23:39:39.567Z,5.90
2019-02-23T23:42:17.541Z,5.80
2019-02-23T23:44:51.352Z,5.90
2019-02-23T23:47:25.162Z,5.90
2019-02-23T23:49:59.530Z,5.90
2019-02-23T23:52:33.365Z,5.80
2019-02-23T23:55:07.317Z,5.80
2019-02-23T23:57:41.883Z,5.70
